sensor_id;sensor_type;location;lat;lon;timestamp;pressure;altitude;pressure_sealevel;temperature;humidity
18819;BME280;9537;45.594;9.294;2022-07-17T00:00:31;99769.66;;;29.47;48.73
18819;BME280;9537;45.594;9.294;2022-07-17T00:01:32;99767.25;;;29.46;48.67
18819;BME280;9537;45.594;9.294;2022-07-17T00:02:34;99772.97;;;29.44;48.79
18819;BME280;9537;45.594;9.294;2022-07-17T00:03:35;99777.06;;;29.41;48.77
18819;BME280;9537;45.594;9.294;2022-07-17T00:04:39;99778.72;;;29.42;48.50
18819;BME280;9537;45.594;9.294;2022-07-17T00:05:40;99781.13;;;29.44;48.73
18819;BME280;9537;45.594;9.294;2022-07-17T00:06:43;99778.94;;;29.46;48.50
18819;BME280;9537;45.594;9.294;2022-07-17T00:07:43;99778.72;;;29.42;48.93
18819;BME280;9537;45.594;9.294;2022-07-17T00:08:47;99781.72;;;29.41;48.64
18819;BME280;9537;45.594;9.294;2022-07-17T00:09:49;99778.78;;;29.37;48.65
18819;BME280;9537;45.594;9.294;2022-07-17T00:10:50;99782.09;;;29.34;48.89
18819;BME280;9537;45.594;9.294;2022-07-17T00:11:51;99779.66;;;29.33;49.09
18819;BME280;9537;45.594;9.294;2022-07-17T00:12:53;99775.31;;;29.32;48.94
18819;BME280;9537;45.594;9.294;2022-07-17T00:13:54;99784.59;;;29.31;49.17
18819;BME280;9537;45.594;9.294;2022-07-17T00:14:56;99783.56;;;29.27;49.12
18819;BME280;9537;45.594;9.294;2022-07-17T00:15:57;99784.13;;;29.24;49.16
18819;BME280;9537;45.594;9.294;2022-07-17T00:16:59;99785.25;;;29.23;49.46
18819;BME280;9537;45.594;9.294;2022-07-17T00:18:01;99791.78;;;29.22;49.38
18819;BME280;9537;45.594;9.294;2022-07-17T00:19:03;99786.66;;;29.20;49.47
18819;BME280;9537;45.594;9.294;2022-07-17T00:20:07;99790.47;;;29.19;49.65
18819;BME280;9537;45.594;9.294;2022-07-17T00:21:09;99793.53;;;29.12;49.55
18819;BME280;9537;45.594;9.294;2022-07-17T00:22:10;99792.94;;;29.15;49.49
18819;BME280;9537;45.594;9.294;2022-07-17T00:23:12;99796.25;;;29.12;49.69
18819;BME280;9537;45.594;9.294;2022-07-17T00:24:13;99792.16;;;29.15;49.63
18819;BME280;9537;45.594;9.294;2022-07-17T00:25:21;99795.97;;;29.14;49.29
18819;BME280;9537;45.594;9.294;2022-07-17T00:26:22;99784.78;;;29.15;49.67
18819;BME280;9537;45.594;9.294;2022-07-17T00:27:24;99784.00;;;29.15;49.64
18819;BME280;9537;45.594;9.294;2022-07-17T00:28:25;99794.34;;;29.13;49.55
18819;BME280;9537;45.594;9.294;2022-07-17T00:29:27;99792.75;;;29.12;49.55
18819;BME280;9537;45.594;9.294;2022-07-17T00:30:28;99793.84;;;29.11;49.77
18819;BME280;9537;45.594;9.294;2022-07-17T00:31:30;99795.78;;;29.10;49.65
18819;BME280;9537;45.594;9.294;2022-07-17T00:32:32;99802.28;;;29.09;49.46
18819;BME280;9537;45.594;9.294;2022-07-17T00:33:34;99804.72;;;29.11;49.44
18819;BME280;9537;45.594;9.294;2022-07-17T00:34:35;99798.47;;;29.10;49.21
18819;BME280;9537;45.594;9.294;2022-07-17T00:35:38;99804.66;;;29.16;48.63
18819;BME280;9537;45.594;9.294;2022-07-17T00:36:40;99796.25;;;29.12;48.77
18819;BME280;9537;45.594;9.294;2022-07-17T00:37:44;99797.91;;;29.13;48.94
18819;BME280;9537;45.594;9.294;2022-07-17T00:38:45;99793.84;;;29.11;48.83
18819;BME280;9537;45.594;9.294;2022-07-17T00:39:47;99795.47;;;29.12;48.56
18819;BME280;9537;45.594;9.294;2022-07-17T00:40:48;99794.06;;;29.14;48.66
18819;BME280;9537;45.594;9.294;2022-07-17T00:41:50;99797.31;;;29.16;48.44
18819;BME280;9537;45.594;9.294;2022-07-17T00:42:52;99803.84;;;29.15;48.42
18819;BME280;9537;45.594;9.294;2022-07-17T00:43:54;99798.91;;;29.17;48.27
18819;BME280;9537;45.594;9.294;2022-07-17T00:44:55;99802.44;;;29.18;47.90
18819;BME280;9537;45.594;9.294;2022-07-17T00:45:58;99800.84;;;29.17;47.92
18819;BME280;9537;45.594;9.294;2022-07-17T00:46:59;99797.81;;;29.18;47.81
18819;BME280;9537;45.594;9.294;2022-07-17T00:48:04;99795.63;;;29.21;47.82
18819;BME280;9537;45.594;9.294;2022-07-17T00:49:06;99794.22;;;29.23;47.77
18819;BME280;9537;45.594;9.294;2022-07-17T00:50:08;99796.13;;;29.23;47.68
18819;BME280;9537;45.594;9.294;2022-07-17T00:51:11;99795.63;;;29.21;48.13
18819;BME280;9537;45.594;9.294;2022-07-17T00:52:14;99801.63;;;29.17;47.87
18819;BME280;9537;45.594;9.294;2022-07-17T00:53:15;99796.19;;;29.17;47.98
18819;BME280;9537;45.594;9.294;2022-07-17T00:54:17;99798.13;;;29.17;47.95
18819;BME280;9537;45.594;9.294;2022-07-17T00:55:19;99797.81;;;29.18;47.91
18819;BME280;9537;45.594;9.294;2022-07-17T00:56:22;99803.56;;;29.17;47.92
18819;BME280;9537;45.594;9.294;2022-07-17T00:57:24;99795.69;;;29.15;47.82
18819;BME280;9537;45.594;9.294;2022-07-17T00:58:28;99799.44;;;29.19;47.80
18819;BME280;9537;45.594;9.294;2022-07-17T00:59:30;99798.91;;;29.17;48.00
18819;BME280;9537;45.594;9.294;2022-07-17T01:00:33;99797.06;;;29.13;48.00
18819;BME280;9537;45.594;9.294;2022-07-17T01:01:34;99806.84;;;29.14;48.25
18819;BME280;9537;45.594;9.294;2022-07-17T01:02:37;99803.94;;;29.10;48.31
18819;BME280;9537;45.594;9.294;2022-07-17T01:03:38;99803.63;;;29.12;48.17
18819;BME280;9537;45.594;9.294;2022-07-17T01:04:41;99803.09;;;29.10;48.35
18819;BME280;9537;45.594;9.294;2022-07-17T01:05:42;99800.38;;;29.10;48.34
18819;BME280;9537;45.594;9.294;2022-07-17T01:06:45;99809.41;;;29.05;48.68
18819;BME280;9537;45.594;9.294;2022-07-17T01:07:47;99802.66;;;29.03;48.84
18819;BME280;9537;45.594;9.294;2022-07-17T01:08:49;99811.06;;;29.01;48.75
18819;BME280;9537;45.594;9.294;2022-07-17T01:09:51;99806.19;;;29.03;48.97
18819;BME280;9537;45.594;9.294;2022-07-17T01:10:52;99806.47;;;29.02;49.23
18819;BME280;9537;45.594;9.294;2022-07-17T01:11:55;99802.09;;;29.01;49.13
18819;BME280;9537;45.594;9.294;2022-07-17T01:12:56;99805.19;;;28.94;49.08
18819;BME280;9537;45.594;9.294;2022-07-17T01:13:58;99805.47;;;28.92;49.25
18819;BME280;9537;45.594;9.294;2022-07-17T01:14:59;99804.38;;;28.93;49.31
18819;BME280;9537;45.594;9.294;2022-07-17T01:16:02;99806.78;;;28.95;49.17
18819;BME280;9537;45.594;9.294;2022-07-17T01:17:04;99811.69;;;28.93;49.33
18819;BME280;9537;45.594;9.294;2022-07-17T01:18:06;99811.19;;;28.91;49.64
18819;BME280;9537;45.594;9.294;2022-07-17T01:19:10;99807.16;;;28.88;49.60
18819;BME280;9537;45.594;9.294;2022-07-17T01:20:11;99808.97;;;28.93;49.64
18819;BME280;9537;45.594;9.294;2022-07-17T01:21:15;99804.13;;;28.90;49.57
18819;BME280;9537;45.594;9.294;2022-07-17T01:22:16;99812.28;;;28.90;49.49
18819;BME280;9537;45.594;9.294;2022-07-17T01:23:19;99810.41;;;28.90;49.42
18819;BME280;9537;45.594;9.294;2022-07-17T01:24:20;99813.03;;;28.95;49.52
18819;BME280;9537;45.594;9.294;2022-07-17T01:25:22;99811.41;;;28.94;49.39
18819;BME280;9537;45.594;9.294;2022-07-17T01:26:23;99811.69;;;28.93;49.67
18819;BME280;9537;45.594;9.294;2022-07-17T01:27:25;99813.91;;;28.91;49.78
18819;BME280;9537;45.594;9.294;2022-07-17T01:28:26;99818.03;;;28.88;49.85
18819;BME280;9537;45.594;9.294;2022-07-17T01:29:28;99809.34;;;28.86;49.87
18819;BME280;9537;45.594;9.294;2022-07-17T01:30:29;99812.13;;;28.81;50.02
18819;BME280;9537;45.594;9.294;2022-07-17T01:31:31;99816.22;;;28.79;50.12
18819;BME280;9537;45.594;9.294;2022-07-17T01:32:33;99815.72;;;28.77;50.34
18819;BME280;9537;45.594;9.294;2022-07-17T01:33:35;99809.53;;;28.71;50.23
18819;BME280;9537;45.594;9.294;2022-07-17T01:34:36;99812.53;;;28.69;50.67
18819;BME280;9537;45.594;9.294;2022-07-17T01:35:38;99819.06;;;28.68;50.71
18819;BME280;9537;45.594;9.294;2022-07-17T01:36:41;99810.16;;;28.63;50.74
18819;BME280;9537;45.594;9.294;2022-07-17T01:37:44;99816.88;;;28.70;50.47
18819;BME280;9537;45.594;9.294;2022-07-17T01:38:45;99817.47;;;28.67;50.46
18819;BME280;9537;45.594;9.294;2022-07-17T01:39:47;99819.13;;;28.63;50.45
18819;BME280;9537;45.594;9.294;2022-07-17T01:40:54;99814.00;;;28.62;50.62
18819;BME280;9537;45.594;9.294;2022-07-17T01:41:55;99819.97;;;28.59;50.81
18819;BME280;9537;45.594;9.294;2022-07-17T01:42:58;99814.53;;;28.59;50.77
18819;BME280;9537;45.594;9.294;2022-07-17T01:44:00;99816.19;;;28.60;50.73
18819;BME280;9537;45.594;9.294;2022-07-17T01:45:02;99817.25;;;28.59;50.83
18819;BME280;9537;45.594;9.294;2022-07-17T01:46:04;99815.66;;;28.58;50.67
18819;BME280;9537;45.594;9.294;2022-07-17T01:47:05;99823.56;;;28.54;50.93
18819;BME280;9537;45.594;9.294;2022-07-17T01:48:07;99822.78;;;28.54;50.99
18819;BME280;9537;45.594;9.294;2022-07-17T01:49:08;99820.84;;;28.54;50.99
18819;BME280;9537;45.594;9.294;2022-07-17T01:50:11;99831.72;;;28.54;51.06
18819;BME280;9537;45.594;9.294;2022-07-17T01:51:12;99826.34;;;28.49;51.17
18819;BME280;9537;45.594;9.294;2022-07-17T01:52:15;99831.81;;;28.44;51.50
18819;BME280;9537;45.594;9.294;2022-07-17T01:53:16;99827.50;;;28.43;51.47
18819;BME280;9537;45.594;9.294;2022-07-17T01:54:18;99828.59;;;28.42;51.52
18819;BME280;9537;45.594;9.294;2022-07-17T01:55:19;99832.38;;;28.41;51.65
18819;BME280;9537;45.594;9.294;2022-07-17T01:56:21;99832.66;;;28.39;51.74
18819;BME280;9537;45.594;9.294;2022-07-17T01:57:22;99834.84;;;28.37;51.88
18819;BME280;9537;45.594;9.294;2022-07-17T01:58:24;99834.03;;;28.37;51.82
18819;BME280;9537;45.594;9.294;2022-07-17T01:59:25;99832.75;;;28.29;51.96
18819;BME280;9537;45.594;9.294;2022-07-17T02:00:27;99838.41;;;28.33;51.86
18819;BME280;9537;45.594;9.294;2022-07-17T02:01:29;99829.47;;;28.32;51.90
18819;BME280;9537;45.594;9.294;2022-07-17T02:02:31;99837.38;;;28.28;51.98
18819;BME280;9537;45.594;9.294;2022-07-17T02:03:32;99832.75;;;28.29;52.04
18819;BME280;9537;45.594;9.294;2022-07-17T02:04:35;99831.38;;;28.32;51.99
18819;BME280;9537;45.594;9.294;2022-07-17T02:05:36;99837.06;;;28.30;51.82
18819;BME280;9537;45.594;9.294;2022-07-17T02:06:38;99838.47;;;28.27;51.82
18819;BME280;9537;45.594;9.294;2022-07-17T02:07:41;99843.66;;;28.24;51.68
18819;BME280;9537;45.594;9.294;2022-07-17T02:08:44;99837.41;;;28.23;51.59
18819;BME280;9537;45.594;9.294;2022-07-17T02:09:45;99839.59;;;28.21;51.94
18819;BME280;9537;45.594;9.294;2022-07-17T02:10:47;99838.53;;;28.22;51.86
18819;BME280;9537;45.594;9.294;2022-07-17T02:11:49;99837.16;;;28.25;51.82
18819;BME280;9537;45.594;9.294;2022-07-17T02:12:51;99840.38;;;28.27;51.77
18819;BME280;9537;45.594;9.294;2022-07-17T02:13:53;99835.25;;;28.25;51.76
18819;BME280;9537;45.594;9.294;2022-07-17T02:14:54;99842.56;;;28.25;51.62
18819;BME280;9537;45.594;9.294;2022-07-17T02:15:56;99841.19;;;28.27;51.54
18819;BME280;9537;45.594;9.294;2022-07-17T02:16:57;99843.38;;;28.25;51.45
18819;BME280;9537;45.594;9.294;2022-07-17T02:17:59;99840.72;;;28.20;51.68
18819;BME280;9537;45.594;9.294;2022-07-17T02:18:59;99835.28;;;28.20;51.79
18819;BME280;9537;45.594;9.294;2022-07-17T02:20:02;99839.09;;;28.19;51.83
18819;BME280;9537;45.594;9.294;2022-07-17T02:21:04;99838.00;;;28.20;51.79
18819;BME280;9537;45.594;9.294;2022-07-17T02:22:06;99846.13;;;28.20;51.84
18819;BME280;9537;45.594;9.294;2022-07-17T02:23:08;99834.25;;;28.16;51.68
18819;BME280;9537;45.594;9.294;2022-07-17T02:24:10;99839.09;;;28.19;51.51
18819;BME280;9537;45.594;9.294;2022-07-17T02:25:12;99844.00;;;28.17;51.59
18819;BME280;9537;45.594;9.294;2022-07-17T02:26:14;99839.09;;;28.19;51.40
18819;BME280;9537;45.594;9.294;2022-07-17T02:27:15;99842.88;;;28.18;51.41
18819;BME280;9537;45.594;9.294;2022-07-17T02:28:17;99839.94;;;28.15;51.57
18819;BME280;9537;45.594;9.294;2022-07-17T02:29:19;99839.13;;;28.14;51.55
18819;BME280;9537;45.594;9.294;2022-07-17T02:30:20;99835.84;;;28.17;51.54
18819;BME280;9537;45.594;9.294;2022-07-17T02:31:22;99839.94;;;28.15;51.69
18819;BME280;9537;45.594;9.294;2022-07-17T02:32:24;99839.13;;;28.14;51.86
18819;BME280;9537;45.594;9.294;2022-07-17T02:33:26;99846.47;;;28.14;51.91
18819;BME280;9537;45.594;9.294;2022-07-17T02:34:27;99846.19;;;28.15;51.67
18819;BME280;9537;45.594;9.294;2022-07-17T02:35:29;99839.16;;;28.09;51.60
18819;BME280;9537;45.594;9.294;2022-07-17T02:36:30;99843.75;;;28.14;51.61
18819;BME280;9537;45.594;9.294;2022-07-17T02:37:32;99840.81;;;28.10;51.43
18819;BME280;9537;45.594;9.294;2022-07-17T02:38:35;99843.78;;;28.08;50.86
18819;BME280;9537;45.594;9.294;2022-07-17T02:39:37;99849.22;;;28.08;51.65
18819;BME280;9537;45.594;9.294;2022-07-17T02:40:52;99843.25;;;28.06;51.44
18819;BME280;9537;45.594;9.294;2022-07-17T02:41:54;99838.94;;;28.05;51.37
18819;BME280;9537;45.594;9.294;2022-07-17T02:42:55;99847.88;;;28.06;51.55
18819;BME280;9537;45.594;9.294;2022-07-17T02:43:57;99845.97;;;28.06;51.38
18819;BME280;9537;45.594;9.294;2022-07-17T02:44:58;99847.09;;;28.05;51.64
18819;BME280;9537;45.594;9.294;2022-07-17T02:46:00;99852.22;;;28.07;51.52
18819;BME280;9537;45.594;9.294;2022-07-17T02:47:01;99849.22;;;28.08;51.36
18819;BME280;9537;45.594;9.294;2022-07-17T02:48:04;99845.13;;;28.11;51.14
18819;BME280;9537;45.594;9.294;2022-07-17T02:49:05;99847.28;;;28.14;50.89
18819;BME280;9537;45.594;9.294;2022-07-17T02:50:09;99846.50;;;28.08;51.23
18819;BME280;9537;45.594;9.294;2022-07-17T02:51:10;99849.22;;;28.08;51.08
18819;BME280;9537;45.594;9.294;2022-07-17T02:52:12;99850.84;;;28.10;50.99
18819;BME280;9537;45.594;9.294;2022-07-17T02:53:13;99851.94;;;28.08;51.03
18819;BME280;9537;45.594;9.294;2022-07-17T02:54:17;99847.09;;;28.05;51.18
18819;BME280;9537;45.594;9.294;2022-07-17T02:55:18;99852.28;;;28.02;51.41
18819;BME280;9537;45.594;9.294;2022-07-17T02:56:20;99852.53;;;28.00;51.29
18819;BME280;9537;45.594;9.294;2022-07-17T02:57:21;99847.91;;;28.01;51.38
18819;BME280;9537;45.594;9.294;2022-07-17T02:58:23;99855.03;;;27.97;51.37
18819;BME280;9537;45.594;9.294;2022-07-17T02:59:24;99855.03;;;27.97;51.46
18819;BME280;9537;45.594;9.294;2022-07-17T03:00:26;99858.00;;;27.95;51.47
18819;BME280;9537;45.594;9.294;2022-07-17T03:01:27;99860.72;;;27.95;51.35
18819;BME280;9537;45.594;9.294;2022-07-17T03:02:29;99850.97;;;27.94;51.39
18819;BME280;9537;45.594;9.294;2022-07-17T03:03:31;99859.38;;;27.93;51.66
18819;BME280;9537;45.594;9.294;2022-07-17T03:04:33;99862.41;;;27.91;51.81
18819;BME280;9537;45.594;9.294;2022-07-17T03:05:34;99871.06;;;27.93;51.83
18819;BME280;9537;45.594;9.294;2022-07-17T03:06:36;99868.63;;;27.92;51.94
18819;BME280;9537;45.594;9.294;2022-07-17T03:07:37;99868.34;;;27.93;51.97
18819;BME280;9537;45.594;9.294;2022-07-17T03:08:39;99872.13;;;27.97;51.82
18819;BME280;9537;45.594;9.294;2022-07-17T03:09:42;99871.00;;;27.98;51.80
18819;BME280;9537;45.594;9.294;2022-07-17T03:10:44;99864.78;;;27.98;52.04
18819;BME280;9537;45.594;9.294;2022-07-17T03:11:45;99868.88;;;27.95;52.30
18819;BME280;9537;45.594;9.294;2022-07-17T03:12:46;99869.44;;;27.92;52.26
18819;BME280;9537;45.594;9.294;2022-07-17T03:13:47;99869.47;;;27.87;52.52
18819;BME280;9537;45.594;9.294;2022-07-17T03:14:49;99867.88;;;27.81;52.70
18819;BME280;9537;45.594;9.294;2022-07-17T03:15:50;99874.41;;;27.80;52.48
18819;BME280;9537;45.594;9.294;2022-07-17T03:16:52;99870.88;;;27.74;52.47
18819;BME280;9537;45.594;9.294;2022-07-17T03:17:53;99873.34;;;27.76;52.59
18819;BME280;9537;45.594;9.294;2022-07-17T03:18:55;99871.13;;;27.78;52.52
18819;BME280;9537;45.594;9.294;2022-07-17T03:19:56;99863.78;;;27.78;52.54
18819;BME280;9537;45.594;9.294;2022-07-17T03:20:58;99869.53;;;27.77;52.79
18819;BME280;9537;45.594;9.294;2022-07-17T03:21:59;99871.94;;;27.78;52.63
18819;BME280;9537;45.594;9.294;2022-07-17T03:23:01;99877.66;;;27.77;52.88
18819;BME280;9537;45.594;9.294;2022-07-17T03:24:02;99874.41;;;27.75;52.78
18819;BME280;9537;45.594;9.294;2022-07-17T03:25:08;99875.28;;;27.70;52.76
18819;BME280;9537;45.594;9.294;2022-07-17T03:26:09;99877.69;;;27.72;52.84
18819;BME280;9537;45.594;9.294;2022-07-17T03:27:11;99879.06;;;27.69;53.07
18819;BME280;9537;45.594;9.294;2022-07-17T03:28:12;99875.53;;;27.69;53.03
18819;BME280;9537;45.594;9.294;2022-07-17T03:29:14;99880.19;;;27.63;52.97
18819;BME280;9537;45.594;9.294;2022-07-17T03:30:17;99883.44;;;27.65;53.19
18819;BME280;9537;45.594;9.294;2022-07-17T03:31:19;99883.97;;;27.67;53.00
18819;BME280;9537;45.594;9.294;2022-07-17T03:32:21;99888.53;;;27.72;53.02
18819;BME280;9537;45.594;9.294;2022-07-17T03:33:23;99887.44;;;27.73;53.13
18819;BME280;9537;45.594;9.294;2022-07-17T03:34:24;99889.06;;;27.74;53.22
18819;BME280;9537;45.594;9.294;2022-07-17T03:35:26;99881.22;;;27.72;52.87
18819;BME280;9537;45.594;9.294;2022-07-17T03:36:26;99888.53;;;27.72;53.38
18819;BME280;9537;45.594;9.294;2022-07-17T03:37:28;99892.59;;;27.74;53.32
18819;BME280;9537;45.594;9.294;2022-07-17T03:38:29;99899.41;;;27.72;53.31
18819;BME280;9537;45.594;9.294;2022-07-17T03:39:31;99898.06;;;27.69;53.16
18819;BME280;9537;45.594;9.294;2022-07-17T03:40:34;99898.06;;;27.64;53.31
18819;BME280;9537;45.594;9.294;2022-07-17T03:41:36;99897.56;;;27.62;53.33
18819;BME280;9537;45.594;9.294;2022-07-17T03:42:37;99895.41;;;27.59;53.12
18819;BME280;9537;45.594;9.294;2022-07-17T03:43:39;99899.97;;;27.63;53.02
18819;BME280;9537;45.594;9.294;2022-07-17T03:44:40;99901.09;;;27.62;53.00
18819;BME280;9537;45.594;9.294;2022-07-17T03:45:42;99902.69;;;27.63;52.70
18819;BME280;9537;45.594;9.294;2022-07-17T03:46:43;99908.94;;;27.64;52.53
18819;BME280;9537;45.594;9.294;2022-07-17T03:47:45;99902.97;;;27.67;52.39
18819;BME280;9537;45.594;9.294;2022-07-17T03:48:46;99903.25;;;27.60;52.58
18819;BME280;9537;45.594;9.294;2022-07-17T03:49:48;99910.59;;;27.60;52.92
18819;BME280;9537;45.594;9.294;2022-07-17T03:50:49;99909.53;;;27.56;53.05
18819;BME280;9537;45.594;9.294;2022-07-17T03:51:51;99911.41;;;27.55;53.11
18819;BME280;9537;45.594;9.294;2022-07-17T03:52:52;99906.53;;;27.57;53.02
18819;BME280;9537;45.594;9.294;2022-07-17T03:53:54;99914.66;;;27.57;53.15
18819;BME280;9537;45.594;9.294;2022-07-17T03:54:55;99910.03;;;27.58;52.88
18819;BME280;9537;45.594;9.294;2022-07-17T03:55:58;99914.91;;;27.61;52.85
18819;BME280;9537;45.594;9.294;2022-07-17T03:56:59;99920.63;;;27.59;52.75
18819;BME280;9537;45.594;9.294;2022-07-17T03:58:01;99917.91;;;27.59;52.93
18819;BME280;9537;45.594;9.294;2022-07-17T03:59:02;99922.81;;;27.57;52.96
18819;BME280;9537;45.594;9.294;2022-07-17T04:00:06;99915.22;;;27.54;53.07
18819;BME280;9537;45.594;9.294;2022-07-17T04:01:07;99919.59;;;27.50;53.00
18819;BME280;9537;45.594;9.294;2022-07-17T04:02:09;99923.69;;;27.48;53.07
18819;BME280;9537;45.594;9.294;2022-07-17T04:03:10;99927.47;;;27.47;53.23
18819;BME280;9537;45.594;9.294;2022-07-17T04:04:12;99927.75;;;27.45;53.55
18819;BME280;9537;45.594;9.294;2022-07-17T04:05:13;99917.47;;;27.42;53.59
18819;BME280;9537;45.594;9.294;2022-07-17T04:06:15;99929.69;;;27.39;53.91
18819;BME280;9537;45.594;9.294;2022-07-17T04:07:16;99934.00;;;27.40;53.73
18819;BME280;9537;45.594;9.294;2022-07-17T04:08:31;99929.69;;;27.34;53.77
18819;BME280;9537;45.594;9.294;2022-07-17T04:09:32;99929.69;;;27.39;53.70
18819;BME280;9537;45.594;9.294;2022-07-17T04:10:34;99937.00;;;27.39;53.58
18819;BME280;9537;45.594;9.294;2022-07-17T04:11:37;99936.44;;;27.42;53.14
18819;BME280;9537;45.594;9.294;2022-07-17T04:12:39;99926.13;;;27.44;53.22
18819;BME280;9537;45.594;9.294;2022-07-17T04:13:41;99941.31;;;27.45;53.03
18819;BME280;9537;45.594;9.294;2022-07-17T04:14:43;99940.78;;;27.43;53.15
18819;BME280;9537;45.594;9.294;2022-07-17T04:15:44;99944.03;;;27.45;53.17
18819;BME280;9537;45.594;9.294;2022-07-17T04:16:53;99946.44;;;27.47;53.05
18819;BME280;9537;45.594;9.294;2022-07-17T04:17:54;99947.00;;;27.44;53.06
18819;BME280;9537;45.594;9.294;2022-07-17T04:18:56;99945.94;;;27.45;53.19
18819;BME280;9537;45.594;9.294;2022-07-17T04:19:57;99954.06;;;27.45;53.21
18819;BME280;9537;45.594;9.294;2022-07-17T04:21:00;99950.53;;;27.44;53.29
18819;BME280;9537;45.594;9.294;2022-07-17T04:22:02;99949.47;;;27.40;53.64
18819;BME280;9537;45.594;9.294;2022-07-17T04:23:04;99951.38;;;27.39;53.41
18819;BME280;9537;45.594;9.294;2022-07-17T04:24:06;99949.72;;;27.38;53.29
18819;BME280;9537;45.594;9.294;2022-07-17T04:25:08;99960.88;;;27.37;53.46
18819;BME280;9537;45.594;9.294;2022-07-17T04:26:09;99963.59;;;27.32;53.49
18819;BME280;9537;45.594;9.294;2022-07-17T04:27:13;99960.63;;;27.28;53.76
18819;BME280;9537;45.594;9.294;2022-07-17T04:28:14;99961.69;;;27.32;53.73
18819;BME280;9537;45.594;9.294;2022-07-17T04:29:16;99969.56;;;27.29;53.65
18819;BME280;9537;45.594;9.294;2022-07-17T04:30:17;99969.88;;;27.27;53.63
18819;BME280;9537;45.594;9.294;2022-07-17T04:31:19;99969.31;;;27.25;53.90
18819;BME280;9537;45.594;9.294;2022-07-17T04:32:20;99977.44;;;27.25;53.61
18819;BME280;9537;45.594;9.294;2022-07-17T04:33:22;99974.44;;;27.27;53.63
18819;BME280;9537;45.594;9.294;2022-07-17T04:34:23;99982.06;;;27.25;53.70
18819;BME280;9537;45.594;9.294;2022-07-17T04:35:25;99979.63;;;27.23;54.04
18819;BME280;9537;45.594;9.294;2022-07-17T04:36:26;99983.13;;;27.24;53.91
18819;BME280;9537;45.594;9.294;2022-07-17T04:37:29;99982.59;;;27.27;53.89
18819;BME280;9537;45.594;9.294;2022-07-17T04:38:31;99980.72;;;27.27;53.99
18819;BME280;9537;45.594;9.294;2022-07-17T04:39:33;99993.44;;;27.27;53.90
18819;BME280;9537;45.594;9.294;2022-07-17T04:40:36;99982.88;;;27.25;54.13
18819;BME280;9537;45.594;9.294;2022-07-17T04:41:38;99989.38;;;27.24;53.94
18819;BME280;9537;45.594;9.294;2022-07-17T04:42:40;99986.41;;;27.26;54.12
18819;BME280;9537;45.594;9.294;2022-07-17T04:43:42;99992.63;;;27.26;53.70
18819;BME280;9537;45.594;9.294;2022-07-17T04:44:43;99989.66;;;27.28;53.54
18819;BME280;9537;45.594;9.294;2022-07-17T04:45:45;99991.81;;;27.31;53.22
18819;BME280;9537;45.594;9.294;2022-07-17T04:46:46;99994.78;;;27.34;53.35
18819;BME280;9537;45.594;9.294;2022-07-17T04:47:49;99996.94;;;27.37;53.04
18819;BME280;9537;45.594;9.294;2022-07-17T04:48:50;99989.34;;;27.39;52.68
18819;BME280;9537;45.594;9.294;2022-07-17T04:49:51;99989.06;;;27.41;52.49
18819;BME280;9537;45.594;9.294;2022-07-17T04:50:52;99997.47;;;27.45;52.13
18819;BME280;9537;45.594;9.294;2022-07-17T04:51:54;99994.47;;;27.46;51.87
18819;BME280;9537;45.594;9.294;2022-07-17T04:52:55;99998.53;;;27.49;51.53
18819;BME280;9537;45.594;9.294;2022-07-17T04:53:57;99997.16;;;27.51;50.95
18819;BME280;9537;45.594;9.294;2022-07-17T04:54:58;99999.06;;;27.56;49.95
18819;BME280;9537;45.594;9.294;2022-07-17T04:56:00;100002.03;;;27.59;49.36
18819;BME280;9537;45.594;9.294;2022-07-17T04:57:01;99999.03;;;27.61;48.79
18819;BME280;9537;45.594;9.294;2022-07-17T04:58:05;99997.16;;;27.61;48.28
18819;BME280;9537;45.594;9.294;2022-07-17T04:59:06;100002.81;;;27.65;47.85
18819;BME280;9537;45.594;9.294;2022-07-17T05:00:10;100002.81;;;27.65;47.73
18819;BME280;9537;45.594;9.294;2022-07-17T05:01:11;100009.84;;;27.66;47.70
18819;BME280;9537;45.594;9.294;2022-07-17T05:02:13;100002.25;;;27.68;47.59
18819;BME280;9537;45.594;9.294;2022-07-17T05:03:15;100009.31;;;27.69;47.42
18819;BME280;9537;45.594;9.294;2022-07-17T05:04:17;100012.00;;;27.74;47.34
18819;BME280;9537;45.594;9.294;2022-07-17T05:05:18;100008.19;;;27.75;47.29
18819;BME280;9537;45.594;9.294;2022-07-17T05:06:20;100013.94;;;27.79;47.31
18819;BME280;9537;45.594;9.294;2022-07-17T05:07:21;100016.63;;;27.79;47.34
18819;BME280;9537;45.594;9.294;2022-07-17T05:08:24;100012.81;;;27.80;47.23
18819;BME280;9537;45.594;9.294;2022-07-17T05:09:25;100017.44;;;27.79;47.20
18819;BME280;9537;45.594;9.294;2022-07-17T05:10:27;100014.72;;;27.79;47.33
18819;BME280;9537;45.594;9.294;2022-07-17T05:11:28;100018.78;;;27.82;47.29
18819;BME280;9537;45.594;9.294;2022-07-17T05:12:30;100021.22;;;27.83;47.31
18819;BME280;9537;45.594;9.294;2022-07-17T05:13:32;100016.88;;;27.82;47.47
18819;BME280;9537;45.594;9.294;2022-07-17T05:14:34;100018.22;;;27.85;47.35
18819;BME280;9537;45.594;9.294;2022-07-17T05:15:35;100027.75;;;27.82;47.57
18819;BME280;9537;45.594;9.294;2022-07-17T05:16:37;100021.22;;;27.83;47.46
18819;BME280;9537;45.594;9.294;2022-07-17T05:17:39;100022.56;;;27.86;47.45
18819;BME280;9537;45.594;9.294;2022-07-17T05:18:41;100023.09;;;27.88;47.77
18819;BME280;9537;45.594;9.294;2022-07-17T05:19:42;100023.09;;;27.88;47.60
18819;BME280;9537;45.594;9.294;2022-07-17T05:20:44;100027.97;;;27.91;47.46
18819;BME280;9537;45.594;9.294;2022-07-17T05:21:45;100027.97;;;27.91;47.54
18819;BME280;9537;45.594;9.294;2022-07-17T05:22:47;100026.88;;;27.87;47.75
18819;BME280;9537;45.594;9.294;2022-07-17T05:23:48;100030.16;;;27.89;47.73
18819;BME280;9537;45.594;9.294;2022-07-17T05:24:50;100040.19;;;27.89;47.89
18819;BME280;9537;45.594;9.294;2022-07-17T05:25:51;100032.84;;;27.89;47.63
18819;BME280;9537;45.594;9.294;2022-07-17T05:26:53;100029.59;;;27.92;47.84
18819;BME280;9537;45.594;9.294;2022-07-17T05:27:55;100033.66;;;27.95;47.73
18819;BME280;9537;45.594;9.294;2022-07-17T05:28:58;100039.63;;;27.97;47.65
18819;BME280;9537;45.594;9.294;2022-07-17T05:29:59;100048.00;;;28.00;47.45
18819;BME280;9537;45.594;9.294;2022-07-17T05:31:01;100051.81;;;27.99;47.68
18819;BME280;9537;45.594;9.294;2022-07-17T05:32:02;100040.97;;;27.99;47.74